ADDS METAR Data INFO
IDs: Format: Raw Decoded Include TAF

Data at: 1525 UTC 18 Jun 2018

KLHM 181515Z AUTO 16004KT 10SM CLR 18/11 A3000 RMK AO1
KLHM 181455Z AUTO 20004KT 10SM CLR 17/12 A3000 RMK AO1
KLHM 181435Z AUTO 17003KT 10SM CLR 17/11 A3000 RMK AO1
KLHM 181415Z AUTO 17003KT 10SM CLR 16/11 A2999 RMK AO1
KLHM 181355Z AUTO 13004KT 10SM CLR 16/11 A2999 RMK AO1
KLHM 181335Z AUTO 13004KT 10SM CLR 15/11 A2998 RMK AO1
KLHM 181315Z AUTO 14004KT 10SM CLR 14/11 A2999 RMK AO1
KLHM 181255Z AUTO 14005KT 10SM CLR 13/11 A2998 RMK AO1
KLHM 181235Z AUTO 15005KT 10SM CLR 13/11 A2998 RMK AO1
KLHM 181215Z AUTO 16006KT 10SM CLR 13/11 A2997 RMK AO1
KLHM 181155Z AUTO 16006KT 10SM CLR 13/11 A2997 RMK AO1
KLHM 181135Z AUTO 16004KT 10SM CLR 13/11 A2996 RMK AO1
KLHM 181115Z AUTO 17006KT 10SM CLR 14/11 A2996 RMK AO1
KLHM 181055Z AUTO 17004KT 10SM CLR 14/11 A2995 RMK AO1
KLHM 181035Z AUTO 17006KT 10SM CLR 15/11 A2995 RMK AO1
KLHM 181015Z AUTO 16005KT 10SM CLR 15/11 A2995 RMK AO1
KLHM 180955Z AUTO 15005KT 10SM CLR 16/11 A2995 RMK AO1
KLHM 180935Z AUTO 12005KT 10SM CLR 16/11 A2995 RMK AO1
KLHM 180915Z AUTO 13007KT 10SM CLR 16/11 A2994 RMK AO1
KLHM 180855Z AUTO 13003KT 10SM CLR 16/11 A2994 RMK AO1
KLHM 180835Z AUTO 15004KT 10SM CLR 15/11 A2994 RMK AO1
KLHM 180815Z AUTO 16006KT 10SM CLR 15/11 A2995 RMK AO1
KLHM 180755Z AUTO 17004KT 10SM CLR 15/11 A2995 RMK AO1
KLHM 180735Z AUTO 19003KT 10SM CLR 16/10 A2994 RMK AO1
KLHM 180715Z AUTO 00000KT 10SM CLR 17/10 A2994 RMK AO1
KLHM 180655Z AUTO 12003KT 10SM CLR 16/11 A2993 RMK AO1
KLHM 180635Z AUTO 11004KT 10SM CLR 15/11 A2993 RMK AO1
KLHM 180615Z AUTO 09004KT 10SM CLR 15/11 A2993 RMK AO1
KLHM 180555Z AUTO 13003KT 10SM CLR 17/12 A2993 RMK AO1
KLHM 180535Z AUTO 17003KT 10SM CLR 17/11 A2993 RMK AO1
KLHM 180515Z AUTO 20004KT 10SM CLR 18/12 A2992 RMK AO1
KLHM 180455Z AUTO 21006KT 10SM CLR 18/12 A2991 RMK AO1
KLHM 180435Z AUTO 21005KT 10SM CLR 19/12 A2990 RMK AO1
KLHM 180415Z AUTO 22005KT 10SM CLR 19/11 A2989 RMK AO1
KLHM 180355Z AUTO 21004KT 10SM CLR 21/09 A2988 RMK AO1
KLHM 180335Z AUTO 00000KT 10SM CLR 22/09 A2988 RMK AO1
KLHM 180315Z AUTO 00000KT 10SM CLR 23/08 A2988 RMK AO1
KLHM 180255Z AUTO 23004KT 10SM CLR 24/07 A2988 RMK AO1
KLHM 180235Z AUTO 20003KT 10SM CLR 25/07 A2987 RMK AO1
KLHM 180215Z AUTO 16005KT 10SM CLR 25/06 A2987 RMK AO1
KLHM 180155Z AUTO 18006KT 10SM CLR 25/06 A2986 RMK AO1
KLHM 180135Z AUTO 16005KT 10SM CLR 26/06 A2986 RMK AO1
KLHM 180115Z AUTO 16006KT 10SM CLR 26/06 A2985 RMK AO1
KLHM 180055Z AUTO 13005KT 10SM CLR 26/06 A2985 RMK AO1
KLHM 180035Z AUTO 17008KT 10SM CLR 26/06 A2986 RMK AO1
KLHM 180015Z AUTO 19005KT 10SM CLR 26/06 A2986 RMK AO1
KLHM 172355Z AUTO 20008KT 10SM CLR 26/06 A2986 RMK AO1
KLHM 172335Z AUTO 23004KT 10SM CLR 25/06 A2986 RMK AO1
KLHM 172315Z AUTO 19009G14KT 10SM CLR 26/06 A2986 RMK AO1
KLHM 172255Z AUTO 20007KT 10SM CLR 25/06 A2987 RMK AO1
KLHM 172235Z AUTO 19007KT 10SM CLR 25/06 A2988 RMK AO1
KLHM 172215Z AUTO 20004KT 10SM CLR 25/07 A2988 RMK AO1
KLHM 172155Z AUTO 15006KT 120V180 10SM CLR 25/07 A2988 RMK AO1
KLHM 172135Z AUTO 20003KT 10SM CLR 23/07 A2988 RMK AO1
KLHM 172115Z AUTO 21007KT 10SM CLR 23/07 A2988 RMK AO1
KLHM 172055Z AUTO 15004KT 10SM CLR 23/07 A2988 RMK AO1
KLHM 172035Z AUTO 13003KT 10SM CLR 22/08 A2989 RMK AO1
KLHM 172015Z AUTO 00000KT 10SM CLR 22/08 A2989 RMK AO1
KLHM 171955Z AUTO 19008G14KT 10SM SCT042 22/08 A2989 RMK AO1
KLHM 171935Z AUTO 15004KT 10SM SCT042 21/09 A2989 RMK AO1
KLHM 171915Z AUTO 20008KT 10SM CLR 21/09 A2989 RMK AO1
KLHM 171855Z AUTO 15006KT 10SM CLR 20/09 A2989 RMK AO1
KLHM 171835Z AUTO 17009KT 10SM CLR 19/09 A2989 RMK AO1
KLHM 171815Z AUTO 19010KT 10SM CLR 19/09 A2990 RMK AO1
KLHM 171755Z AUTO 20008KT 10SM CLR 18/09 A2989 RMK AO1
KLHM 171735Z AUTO 18007KT 10SM SCT026 18/09 A2989 RMK AO1
KLHM 171715Z AUTO 20007KT 10SM BKN024 18/10 A2989 RMK AO1
KLHM 171655Z AUTO 20012KT 10SM SCT024 17/10 A2988 RMK AO1
KLHM 171635Z AUTO 20010KT 10SM SCT026 17/10 A2988 RMK AO1
KLHM 171615Z AUTO 17010KT 10SM BKN024 16/10 A2988 RMK AO1
KLHM 171555Z AUTO 18010KT 10SM OVC024 16/10 A2988 RMK AO1
KLHM 171535Z AUTO 15009KT 10SM OVC024 15/10 A2987 RMK AO1
KLHM 171515Z AUTO 15011KT 10SM OVC024 15/09 A2986 RMK AO1
KLHM 171455Z AUTO 14010KT 10SM OVC022 15/09 A2987 RMK AO1
KLHM 171435Z AUTO 14011KT 10SM OVC022 14/09 A2985 RMK AO1
KLHM 171415Z AUTO 13009KT 10SM SCT017 OVC022 14/09 A2985 RMK AO1
KLHM 171355Z AUTO 14011KT 10SM OVC022 14/09 A2983 RMK AO1
KLHM 171335Z AUTO 14010KT 10SM OVC022 13/09 A2983 RMK AO1
KLHM 171315Z AUTO 13009KT 10SM OVC019 13/09 A2982 RMK AO1
KLHM 171255Z AUTO 13008KT 10SM OVC017 13/08 A2982 RMK AO1
KLHM 171235Z AUTO 13006KT 10SM OVC017 12/08 A2982 RMK AO1
KLHM 171215Z AUTO 13006KT 10SM SCT017 12/08 A2981 RMK AO1
KLHM 171155Z AUTO 15007KT 10SM CLR 12/09 A2980 RMK AO1
KLHM 171135Z AUTO 15011KT 10SM CLR 12/08 A2978 RMK AO1
KLHM 171115Z AUTO 13009KT 10SM SCT015 12/08 A2977 RMK AO1
KLHM 171055Z AUTO 14008KT 10SM SCT017 12/08 A2976 RMK AO1
KLHM 171035Z AUTO 13007KT 10SM SCT017 12/08 A2977 RMK AO1
KLHM 171015Z AUTO 13006KT 10SM CLR 11/08 A2976 RMK AO1
KLHM 170955Z AUTO 10005KT 10SM CLR 10/07 A2975 RMK AO1
KLHM 170935Z AUTO 11005KT 10SM CLR 12/08 A2975 RMK AO1
KLHM 170915Z AUTO 14004KT 10SM CLR 11/07 A2976 RMK AO1
KLHM 170855Z AUTO 15008KT 10SM CLR 12/07 A2974 RMK AO1
KLHM 170835Z AUTO 15012KT 10SM CLR 12/08 A2973 RMK AO1
KLHM 170815Z AUTO 16008KT 10SM CLR 12/08 A2974 RMK AO1
KLHM 170755Z AUTO 16007KT 10SM CLR 12/08 A2974 RMK AO1
KLHM 170735Z AUTO 18012KT 10SM CLR 12/08 A2974 RMK AO1
KLHM 170715Z AUTO 16008KT 10SM CLR 12/08 A2972 RMK AO1
KLHM 170655Z AUTO 17007G14KT 10SM CLR 12/08 A2973 RMK AO1
KLHM 170635Z AUTO 22010KT 10SM CLR 13/08 A2973 RMK AO1
KLHM 170615Z AUTO 17012KT 10SM CLR 13/07 A2970 RMK AO1
KLHM 170555Z AUTO 16013G16KT 10SM CLR 13/07 A2969 RMK AO1
KLHM 170535Z AUTO 17011KT 10SM CLR 14/07 A2969 RMK AO1
KLHM 170515Z AUTO 16010KT 10SM CLR 14/08 A2969 RMK AO1
KLHM 170455Z AUTO 16010KT 10SM CLR 15/08 A2968 RMK AO1
KLHM 170435Z AUTO 16010KT 10SM CLR 15/08 A2967 RMK AO1
KLHM 170415Z AUTO 17008KT 10SM CLR 15/08 A2965 RMK AO1
KLHM 170355Z AUTO 18011G21KT 10SM CLR 16/09 A2965 RMK AO1
KLHM 170335Z AUTO 18015KT 10SM CLR 16/10 A2964 RMK AO1